Portada
METAR-TAF:

METAR-TAF

Aeropuertos :

Lansing Municipal Airport

Lansing, Illinois, Estados Unidos

latitud: 41-32-24N, longitud: 087-31-56W, altitud: 188 m

Observación

El informe se hizo hace 31 minutos, a las 20:15 UTC
Viento 13 kt del suroeste con ráfagas de 16 kt
Temperatura 33°C
Humedad 46%
Presión 1023 hPa
Visibilidad: 16.1 km
Nubes dispersas a una altura de 7000 ft
Nubes dispersas a una altura de 8000 ft

METAR: KIGQ 192015Z AUTO 22013G16KT 10SM SCT070 SCT080 33/20 A3020 RMK AO2 T03270203

Hora: 15:46 (20:46 UTC)


TAF: falta

Observaciones y pronósticos meteorológicos de más de 4000 aeropuertos (mensajes METAR y TAF).

Los puntos amarillos y rojos representan las estaciones disponibles.

Ponga el ratón en el punto deseado para ver el nombre de la estación.

Haga clic para ver las observaciones y los pronósticos meteorológicos.

Para cambiar el mapa : haga clic en los botones verdes con una cruz de color negro para hacer un zoom, en el botón verde con un guión para alejar o en las flechas verdes para mapas adyacentes.


METAR-TAF: